Harry B. Settoon — WDE5658 — position and weather

sailwx.info

Track history (hours):
 
Tides and Currents Weather Stations Pressure Air Temp Water Temp Dewpoint Dewpoint Depression Visibility Wind Speed Wind Dir Waves Ship Positions

Harry B. Settoon

Owner: Settoon Towing, LLC, Houma, LA. More information available from US FCC via Universal Licensing System and Coast Guard Vessel Documentation Center.

Last reported at 2016-May-04 04:30 UTC. Time now 2016-May-06 14:58 UTC.
Position N 29°35' W 090°57'.

; draft 1.8 m.

Type: Tug. MMSI: 367369920.

Date/timePositionNaut miles runAvg speedWind from/ knotsBaromVisibWave heightAir tempDewpointWater temp
2016-May-04 04:30N 29°35' W 090°57'6 6.8
2016-May-04 03:33N 29°32' W 090°51'6 6.1
2016-May-04 02:33N 29°34' W 090°44'3 3.4
2016-May-04 01:33N 29°37' W 090°42'0 0.1
2016-May-04 00:34N 29°37' W 090°42'0 0.0
2016-May-03 23:33N 29°37' W 090°42'0 0.0
2016-May-03 22:33N 29°37' W 090°42'0 0.0
2016-May-03 21:33N 29°37' W 090°42'0 0.0
2016-May-03 20:33N 29°37' W 090°42'0 0.1
2016-May-03 19:33N 29°37' W 090°42'0 0.0
2016-May-03 18:33N 29°37' W 090°42'0 0.0
2016-May-03 17:33N 29°37' W 090°42'0 0.0
2016-May-03 16:33N 29°37' W 090°42'0 0.0
2016-May-03 15:33N 29°37' W 090°42'0 0.0
2016-May-03 14:33N 29°37' W 090°42'0 0.0
2016-May-03 13:33N 29°37' W 090°42'0 0.0
2016-May-03 12:33N 29°37' W 090°42'0 0.0
2016-May-03 11:33N 29°37' W 090°42'0 0.0
2016-May-03 10:34N 29°37' W 090°42'0 0.0
2016-May-03 09:34N 29°37' W 090°42'0 0.0
2016-May-03 08:34N 29°37' W 090°42'0 0.0
2016-May-03 07:33N 29°37' W 090°42'0 0.0
2016-May-03 06:33N 29°37' W 090°42'0 0.0
2016-May-03 05:33N 29°37' W 090°42'0 0.0
2016-May-03 04:33N 29°37' W 090°42'0 0.0
2016-May-03 03:33N 29°37' W 090°42'0 0.0
2016-May-03 02:33N 29°37' W 090°42'0 0.0
2016-May-03 01:33N 29°37' W 090°42'0 0.0
2016-May-03 00:33N 29°37' W 090°42'0 0.0
2016-May-02 23:33N 29°37' W 090°42'2 1.8
2016-May-02 22:33N 29°35' W 090°43'5 5.2
2016-May-02 21:34N 29°32' W 090°48'7 5.9
2016-May-02 20:24N 29°34' W 090°55'  
2016-Apr-25 09:32N 29°36' W 090°58'6 6.3
2016-Apr-25 08:31N 29°32' W 090°52'6 6.0
2016-Apr-25 07:33N 29°33' W 090°45'5 4.6
2016-Apr-25 06:33N 29°37' W 090°42'1 0.7
2016-Apr-25 05:33N 29°37' W 090°42'0 0.0
2016-Apr-25 04:33N 29°37' W 090°42'0 0.0
2016-Apr-25 03:33N 29°37' W 090°42'0 0.0
2016-Apr-25 02:33N 29°37' W 090°42'0 0.0
2016-Apr-25 01:33N 29°37' W 090°42'0 0.2
2016-Apr-25 00:33N 29°37' W 090°42'0 0.0
2016-Apr-24 23:33N 29°37' W 090°42'0 0.0
2016-Apr-24 22:33N 29°37' W 090°42'0 0.0
2016-Apr-24 21:33N 29°37' W 090°42'0 0.0
2016-Apr-24 20:33N 29°37' W 090°42'0 0.0
2016-Apr-24 19:34N 29°37' W 090°42'0 0.0
2016-Apr-24 18:33N 29°37' W 090°42'0 0.0
2016-Apr-24 17:34N 29°37' W 090°42'0 0.0
2016-Apr-24 16:33N 29°37' W 090°42'0 0.0
2016-Apr-24 15:33N 29°37' W 090°42'0 0.0
2016-Apr-24 14:33N 29°37' W 090°42'0 0.0
2016-Apr-24 13:33N 29°37' W 090°42'0 0.0
2016-Apr-24 12:33N 29°37' W 090°42'0 0.0
2016-Apr-24 11:33N 29°37' W 090°42'0 0.0
2016-Apr-24 10:33N 29°37' W 090°42'0 0.0
2016-Apr-24 09:33N 29°37' W 090°42'0 0.0
2016-Apr-24 08:33N 29°37' W 090°42'0 0.0
2016-Apr-24 07:33N 29°37' W 090°42'0 0.0
2016-Apr-24 06:33N 29°37' W 090°42'0 0.0
2016-Apr-24 05:33N 29°37' W 090°42'0 0.0
2016-Apr-24 04:33N 29°37' W 090°42'  
Track history (hours):
 
Tides and Currents Weather Stations Pressure Air Temp Water Temp Dewpoint Dewpoint Depression Visibility Wind Speed Wind Dir Waves Ship Positions

Harry B. Settoon

Owner: Settoon Towing, LLC, Houma, LA. More information available from US FCC via Universal Licensing System and Coast Guard Vessel Documentation Center.

Last reported at 2016-May-04 04:30 UTC. Time now 2016-May-06 14:58 UTC.
Position N 29°35' W 090°57'.

; draft 1.8 m.

Type: Tug. MMSI: 367369920.

Date/timePositionNaut miles runAvg speedWind from/ knotsBaromVisibWave heightAir tempDewpointWater temp
2016-May-04 04:30N 29°35' W 090°57'6 6.8
2016-May-04 03:33N 29°32' W 090°51'6 6.1
2016-May-04 02:33N 29°34' W 090°44'3 3.4
2016-May-04 01:33N 29°37' W 090°42'0 0.1
2016-May-04 00:34N 29°37' W 090°42'0 0.0
2016-May-03 23:33N 29°37' W 090°42'0 0.0
2016-May-03 22:33N 29°37' W 090°42'0 0.0
2016-May-03 21:33N 29°37' W 090°42'0 0.0
2016-May-03 20:33N 29°37' W 090°42'0 0.1
2016-May-03 19:33N 29°37' W 090°42'0 0.0
2016-May-03 18:33N 29°37' W 090°42'0 0.0
2016-May-03 17:33N 29°37' W 090°42'0 0.0
2016-May-03 16:33N 29°37' W 090°42'0 0.0
2016-May-03 15:33N 29°37' W 090°42'0 0.0
2016-May-03 14:33N 29°37' W 090°42'0 0.0
2016-May-03 13:33N 29°37' W 090°42'0 0.0
2016-May-03 12:33N 29°37' W 090°42'0 0.0
2016-May-03 11:33N 29°37' W 090°42'0 0.0
2016-May-03 10:34N 29°37' W 090°42'0 0.0
2016-May-03 09:34N 29°37' W 090°42'0 0.0
2016-May-03 08:34N 29°37' W 090°42'0 0.0
2016-May-03 07:33N 29°37' W 090°42'0 0.0
2016-May-03 06:33N 29°37' W 090°42'0 0.0
2016-May-03 05:33N 29°37' W 090°42'0 0.0
2016-May-03 04:33N 29°37' W 090°42'0 0.0
2016-May-03 03:33N 29°37' W 090°42'0 0.0
2016-May-03 02:33N 29°37' W 090°42'0 0.0
2016-May-03 01:33N 29°37' W 090°42'0 0.0
2016-May-03 00:33N 29°37' W 090°42'0 0.0
2016-May-02 23:33N 29°37' W 090°42'2 1.8
2016-May-02 22:33N 29°35' W 090°43'5 5.2
2016-May-02 21:34N 29°32' W 090°48'7 5.9
2016-May-02 20:24N 29°34' W 090°55'  
2016-Apr-25 09:32N 29°36' W 090°58'6 6.3
2016-Apr-25 08:31N 29°32' W 090°52'6 6.0
2016-Apr-25 07:33N 29°33' W 090°45'5 4.6
2016-Apr-25 06:33N 29°37' W 090°42'1 0.7
2016-Apr-25 05:33N 29°37' W 090°42'0 0.0
2016-Apr-25 04:33N 29°37' W 090°42'0 0.0
2016-Apr-25 03:33N 29°37' W 090°42'0 0.0
2016-Apr-25 02:33N 29°37' W 090°42'0 0.0
2016-Apr-25 01:33N 29°37' W 090°42'0 0.2
2016-Apr-25 00:33N 29°37' W 090°42'0 0.0
2016-Apr-24 23:33N 29°37' W 090°42'0 0.0
2016-Apr-24 22:33N 29°37' W 090°42'0 0.0
2016-Apr-24 21:33N 29°37' W 090°42'0 0.0
2016-Apr-24 20:33N 29°37' W 090°42'0 0.0
2016-Apr-24 19:34N 29°37' W 090°42'0 0.0
2016-Apr-24 18:33N 29°37' W 090°42'0 0.0
2016-Apr-24 17:34N 29°37' W 090°42'0 0.0
2016-Apr-24 16:33N 29°37' W 090°42'0 0.0
2016-Apr-24 15:33N 29°37' W 090°42'0 0.0
2016-Apr-24 14:33N 29°37' W 090°42'0 0.0
2016-Apr-24 13:33N 29°37' W 090°42'0 0.0
2016-Apr-24 12:33N 29°37' W 090°42'0 0.0
2016-Apr-24 11:33N 29°37' W 090°42'0 0.0
2016-Apr-24 10:33N 29°37' W 090°42'0 0.0
2016-Apr-24 09:33N 29°37' W 090°42'0 0.0
2016-Apr-24 08:33N 29°37' W 090°42'0 0.0
2016-Apr-24 07:33N 29°37' W 090°42'0 0.0
2016-Apr-24 06:33N 29°37' W 090°42'0 0.0
2016-Apr-24 05:33N 29°37' W 090°42'0 0.0
2016-Apr-24 04:33N 29°37' W 090°42'  

Dump ship's entire track history